Aeroporto :
LOGIN :

Iscrizione | Disclaimer

   EN    FR    IT 

 










Sommario :    VFR   VFR Marginale   IFR   IFR Intensivo   IFR Molto Intensivo
Visibilità : 
Base nubi : 
>= 8 km
>= 3000ft
5 / 8 km
1000 / 3000 ft
1500m / 5 km
500 / 1000 ft
800 / 1500m
200 / 500 ft
< 800m
< 200 ft
Simboli :   Temporali  Nebbia  Neve Forte  Precipitazioni Forti  Vento > 20 kt
SIGMETs :   Varie  Temporali  Ghiacco  Turbolenza  Onda orograficha  Ceneri Vulcaniche






- Altitudine del aeroporto : 412 ft
- Codice IATA : ADB


LTBJ - Adnan Menderes

ULTIMO METAR :
  • 021150Z 35009KT 9999 -SHRA BKN025 BKN090 11/08 Q1009 BECMG 23015G25KT

METARs OBSOLETI :
  • 021120Z 36012KT 9999 BKN025 BKN090 10/08 Q1009 RESHRA BECMG 23015G25KT
  • 021050Z 36014KT 9999 -SHRA BKN025 BKN090 09/08 Q1009 BECMG 23014KT RMK RWY16 35012KT
  • 021020Z 35014KT 9000 -SHRA BKN025 BKN090 10/09 Q1009 BECMG 23014KT
  • 020950Z 34015KT 7000 -SHRA BKN025 BKN090 10/08 Q1009 RESHRA BECMG 23014KT
  • 020920Z 35016KT 7000 SHRA BKN025 BKN090 10/09 Q1008 TEMPO TL1000 15015G25KT 3500 +TSRA

TAF TAF LTBJ
Valido dal 02 a 12 ore il 03 a 12 ore UTC


021040Z 0212/0312 23015G25KT 9999 BKN030 BKN090
TEMPO 0212/0216 -SHRA
TEMPO 0216/0220 -SHRA
BECMG 0218/0220 VRB02KT
BECMG 0221/0224 4000 BR SCT010 SCT030
PROB40 0303/0306 1200 BCFG
BECMG 0306/0308 9999 NSW



MetMap, La meteo Aeronautica in un colpo d'occhio ! - Copyright ORBIFLY Dicembre 2007 - Disclaimer

ORBIFLY MET'MAP TEAM :

Programmazione e sviluppo : Alexandra Zaïnal
Concezione : Baudouin d'Aumeries
Aiuto per la programmazione : Marc-Olivier Méhu
Supporto tecnico e logistico : Manuel Goepfert
Aiuto per la traduzione : Arnaldo La Scala

Contatto : metmap@orbifly.com




FONTI E CREDITI :

   NOAA